sensor_id;sensor_type;location;lat;lon;timestamp;temperature;humidity
39493;DHT22;25176;51.060;3.720;2023-02-01T00:01:18;8.70;99.90
39493;DHT22;25176;51.060;3.720;2023-02-01T00:03:44;8.60;99.90
39493;DHT22;25176;51.060;3.720;2023-02-01T00:06:09;8.60;99.90
39493;DHT22;25176;51.060;3.720;2023-02-01T00:08:35;8.80;99.90
39493;DHT22;25176;51.060;3.720;2023-02-01T00:11:01;8.70;99.90
39493;DHT22;25176;51.060;3.720;2023-02-01T00:13:28;8.70;99.90
39493;DHT22;25176;51.060;3.720;2023-02-01T00:15:53;8.70;99.90
39493;DHT22;25176;51.060;3.720;2023-02-01T00:18:19;8.70;99.90
39493;DHT22;25176;51.060;3.720;2023-02-01T00:20:47;8.70;99.90
39493;DHT22;25176;51.060;3.720;2023-02-01T00:23:13;8.70;99.90
39493;DHT22;25176;51.060;3.720;2023-02-01T00:25:40;8.50;99.90
39493;DHT22;25176;51.060;3.720;2023-02-01T00:28:05;8.40;99.90
39493;DHT22;25176;51.060;3.720;2023-02-01T00:30:31;8.40;99.90
39493;DHT22;25176;51.060;3.720;2023-02-01T00:32:56;8.40;99.90
39493;DHT22;25176;51.060;3.720;2023-02-01T00:35:22;8.40;99.90
39493;DHT22;25176;51.060;3.720;2023-02-01T00:37:47;8.30;99.90
39493;DHT22;25176;51.060;3.720;2023-02-01T00:40:13;8.20;99.90
39493;DHT22;25176;51.060;3.720;2023-02-01T00:42:38;8.10;99.90
39493;DHT22;25176;51.060;3.720;2023-02-01T00:45:04;8.10;99.90
39493;DHT22;25176;51.060;3.720;2023-02-01T00:47:29;8.00;99.90
39493;DHT22;25176;51.060;3.720;2023-02-01T00:49:55;8.10;99.90
39493;DHT22;25176;51.060;3.720;2023-02-01T00:52:21;8.10;99.90
39493;DHT22;25176;51.060;3.720;2023-02-01T00:54:46;8.10;99.90
39493;DHT22;25176;51.060;3.720;2023-02-01T00:57:12;8.00;99.90
39493;DHT22;25176;51.060;3.720;2023-02-01T00:59:37;7.90;99.90
39493;DHT22;25176;51.060;3.720;2023-02-01T01:02:03;7.90;99.90
39493;DHT22;25176;51.060;3.720;2023-02-01T01:04:28;7.90;99.90
39493;DHT22;25176;51.060;3.720;2023-02-01T01:06:54;7.90;99.90
39493;DHT22;25176;51.060;3.720;2023-02-01T01:09:19;8.00;99.90
39493;DHT22;25176;51.060;3.720;2023-02-01T01:11:44;8.00;99.90
39493;DHT22;25176;51.060;3.720;2023-02-01T01:14:10;8.00;99.90
39493;DHT22;25176;51.060;3.720;2023-02-01T01:16:35;7.90;99.90
39493;DHT22;25176;51.060;3.720;2023-02-01T01:19:02;8.00;99.90
39493;DHT22;25176;51.060;3.720;2023-02-01T01:21:27;8.00;99.90
39493;DHT22;25176;51.060;3.720;2023-02-01T01:23:53;8.00;99.90
39493;DHT22;25176;51.060;3.720;2023-02-01T01:26:20;7.80;99.90
39493;DHT22;25176;51.060;3.720;2023-02-01T01:28:46;7.70;99.90
39493;DHT22;25176;51.060;3.720;2023-02-01T01:31:13;7.70;99.90
39493;DHT22;25176;51.060;3.720;2023-02-01T01:33:39;7.60;99.90
39493;DHT22;25176;51.060;3.720;2023-02-01T01:36:05;7.70;99.90
39493;DHT22;25176;51.060;3.720;2023-02-01T01:38:31;7.70;99.90
39493;DHT22;25176;51.060;3.720;2023-02-01T01:40:57;7.70;99.90
39493;DHT22;25176;51.060;3.720;2023-02-01T01:43:22;7.70;99.90
39493;DHT22;25176;51.060;3.720;2023-02-01T01:45:48;7.60;99.90
39493;DHT22;25176;51.060;3.720;2023-02-01T01:48:25;7.70;99.90
39493;DHT22;25176;51.060;3.720;2023-02-01T01:50:54;7.70;99.90
39493;DHT22;25176;51.060;3.720;2023-02-01T01:53:26;7.70;99.90
39493;DHT22;25176;51.060;3.720;2023-02-01T01:55:52;7.80;99.90
39493;DHT22;25176;51.060;3.720;2023-02-01T01:58:19;7.70;99.90
39493;DHT22;25176;51.060;3.720;2023-02-01T02:00:46;7.60;99.90
39493;DHT22;25176;51.060;3.720;2023-02-01T02:03:22;7.60;99.90
39493;DHT22;25176;51.060;3.720;2023-02-01T02:05:49;7.60;99.90
39493;DHT22;25176;51.060;3.720;2023-02-01T02:08:16;7.50;99.90
39493;DHT22;25176;51.060;3.720;2023-02-01T02:10:42;7.40;99.90
39493;DHT22;25176;51.060;3.720;2023-02-01T02:13:48;7.50;99.90
39493;DHT22;25176;51.060;3.720;2023-02-01T02:16:18;7.40;99.90
39493;DHT22;25176;51.060;3.720;2023-02-01T02:34:21;7.30;99.90
39493;DHT22;25176;51.060;3.720;2023-02-01T02:37:04;7.20;99.90
39493;DHT22;25176;51.060;3.720;2023-02-01T02:39:48;7.20;99.90
39493;DHT22;25176;51.060;3.720;2023-02-01T02:42:25;7.20;99.90
39493;DHT22;25176;51.060;3.720;2023-02-01T02:45:24;7.20;99.90
39493;DHT22;25176;51.060;3.720;2023-02-01T02:48:29;7.10;99.90
39493;DHT22;25176;51.060;3.720;2023-02-01T02:51:09;7.20;99.90
39493;DHT22;25176;51.060;3.720;2023-02-01T02:53:57;7.20;99.90
39493;DHT22;25176;51.060;3.720;2023-02-01T02:56:42;7.20;99.90
39493;DHT22;25176;51.060;3.720;2023-02-01T02:59:26;7.10;99.90
39493;DHT22;25176;51.060;3.720;2023-02-01T03:02:11;7.20;99.90
39493;DHT22;25176;51.060;3.720;2023-02-01T03:04:56;7.20;99.90
39493;DHT22;25176;51.060;3.720;2023-02-01T03:10:07;7.30;99.90
39493;DHT22;25176;51.060;3.720;2023-02-01T03:12:36;7.20;99.90
39493;DHT22;25176;51.060;3.720;2023-02-01T03:18:13;7.20;99.90
39493;DHT22;25176;51.060;3.720;2023-02-01T03:20:39;7.30;99.90
39493;DHT22;25176;51.060;3.720;2023-02-01T03:23:05;7.30;99.90
39493;DHT22;25176;51.060;3.720;2023-02-01T03:25:31;7.20;99.90
39493;DHT22;25176;51.060;3.720;2023-02-01T03:28:02;7.30;99.90
39493;DHT22;25176;51.060;3.720;2023-02-01T03:30:36;7.30;99.90
39493;DHT22;25176;51.060;3.720;2023-02-01T03:33:02;7.30;99.90
39493;DHT22;25176;51.060;3.720;2023-02-01T03:38:30;7.20;99.90
39493;DHT22;25176;51.060;3.720;2023-02-01T03:41:01;7.20;99.90
39493;DHT22;25176;51.060;3.720;2023-02-01T03:43:29;7.20;99.90
39493;DHT22;25176;51.060;3.720;2023-02-01T03:45:58;7.20;99.90
39493;DHT22;25176;51.060;3.720;2023-02-01T03:48:24;7.20;99.90
39493;DHT22;25176;51.060;3.720;2023-02-01T03:50:53;7.20;99.90
39493;DHT22;25176;51.060;3.720;2023-02-01T03:53:21;7.20;99.90
39493;DHT22;25176;51.060;3.720;2023-02-01T03:55:48;7.20;99.90
39493;DHT22;25176;51.060;3.720;2023-02-01T03:58:15;7.10;99.90
39493;DHT22;25176;51.060;3.720;2023-02-01T04:00:43;7.10;99.90
39493;DHT22;25176;51.060;3.720;2023-02-01T04:03:09;7.10;99.90
39493;DHT22;25176;51.060;3.720;2023-02-01T04:05:35;7.10;99.90
39493;DHT22;25176;51.060;3.720;2023-02-01T04:08:00;7.20;99.90
39493;DHT22;25176;51.060;3.720;2023-02-01T04:10:26;7.20;99.90
39493;DHT22;25176;51.060;3.720;2023-02-01T04:12:51;7.20;99.90
39493;DHT22;25176;51.060;3.720;2023-02-01T04:15:17;7.30;99.90
39493;DHT22;25176;51.060;3.720;2023-02-01T04:17:42;7.20;99.90
39493;DHT22;25176;51.060;3.720;2023-02-01T04:20:08;7.10;99.90
39493;DHT22;25176;51.060;3.720;2023-02-01T04:22:34;7.10;99.90
39493;DHT22;25176;51.060;3.720;2023-02-01T04:24:59;7.00;99.90
39493;DHT22;25176;51.060;3.720;2023-02-01T04:27:25;7.00;99.90
39493;DHT22;25176;51.060;3.720;2023-02-01T04:29:51;7.00;99.90
39493;DHT22;25176;51.060;3.720;2023-02-01T04:32:16;7.00;99.90
39493;DHT22;25176;51.060;3.720;2023-02-01T04:34:42;7.00;99.90
39493;DHT22;25176;51.060;3.720;2023-02-01T04:37:07;7.00;99.90
39493;DHT22;25176;51.060;3.720;2023-02-01T04:39:33;7.00;99.90
39493;DHT22;25176;51.060;3.720;2023-02-01T04:41:58;7.00;99.90
39493;DHT22;25176;51.060;3.720;2023-02-01T04:44:24;6.90;99.90
39493;DHT22;25176;51.060;3.720;2023-02-01T04:46:49;6.90;99.90
39493;DHT22;25176;51.060;3.720;2023-02-01T04:49:15;6.90;99.90
39493;DHT22;25176;51.060;3.720;2023-02-01T04:51:40;7.00;99.90
39493;DHT22;25176;51.060;3.720;2023-02-01T04:54:06;7.00;99.90
39493;DHT22;25176;51.060;3.720;2023-02-01T04:56:32;7.00;99.90
39493;DHT22;25176;51.060;3.720;2023-02-01T04:58:57;6.90;99.90
39493;DHT22;25176;51.060;3.720;2023-02-01T05:01:23;6.90;99.90
39493;DHT22;25176;51.060;3.720;2023-02-01T05:03:49;6.90;99.90
39493;DHT22;25176;51.060;3.720;2023-02-01T05:06:15;6.90;99.90
39493;DHT22;25176;51.060;3.720;2023-02-01T05:08:40;6.90;99.90
39493;DHT22;25176;51.060;3.720;2023-02-01T05:11:06;6.90;99.90
39493;DHT22;25176;51.060;3.720;2023-02-01T05:13:31;6.90;99.90
39493;DHT22;25176;51.060;3.720;2023-02-01T05:16:15;6.80;99.90
39493;DHT22;25176;51.060;3.720;2023-02-01T05:18:41;6.90;99.90
39493;DHT22;25176;51.060;3.720;2023-02-01T05:21:06;6.90;99.90
39493;DHT22;25176;51.060;3.720;2023-02-01T05:23:32;6.90;99.90
39493;DHT22;25176;51.060;3.720;2023-02-01T05:25:58;6.90;99.90
39493;DHT22;25176;51.060;3.720;2023-02-01T05:28:23;6.90;99.90
39493;DHT22;25176;51.060;3.720;2023-02-01T05:30:49;6.90;99.90
39493;DHT22;25176;51.060;3.720;2023-02-01T05:33:14;6.90;99.90
39493;DHT22;25176;51.060;3.720;2023-02-01T05:35:40;6.90;99.90
39493;DHT22;25176;51.060;3.720;2023-02-01T05:38:05;6.80;99.90
39493;DHT22;25176;51.060;3.720;2023-02-01T05:40:31;6.90;99.90
39493;DHT22;25176;51.060;3.720;2023-02-01T05:42:56;6.90;99.90
39493;DHT22;25176;51.060;3.720;2023-02-01T05:45:22;6.90;99.90
39493;DHT22;25176;51.060;3.720;2023-02-01T05:47:47;6.90;99.90
39493;DHT22;25176;51.060;3.720;2023-02-01T05:50:13;6.90;99.90
39493;DHT22;25176;51.060;3.720;2023-02-01T05:52:38;6.70;99.90
39493;DHT22;25176;51.060;3.720;2023-02-01T05:55:04;6.70;99.90
39493;DHT22;25176;51.060;3.720;2023-02-01T05:57:29;6.70;99.90
39493;DHT22;25176;51.060;3.720;2023-02-01T05:59:55;6.80;99.90
39493;DHT22;25176;51.060;3.720;2023-02-01T06:02:20;6.80;99.90
39493;DHT22;25176;51.060;3.720;2023-02-01T06:04:46;6.70;99.90
39493;DHT22;25176;51.060;3.720;2023-02-01T06:07:12;6.70;99.90
39493;DHT22;25176;51.060;3.720;2023-02-01T06:09:38;6.70;99.90
39493;DHT22;25176;51.060;3.720;2023-02-01T06:12:03;6.80;99.90
39493;DHT22;25176;51.060;3.720;2023-02-01T06:14:29;6.70;99.90
39493;DHT22;25176;51.060;3.720;2023-02-01T06:16:54;6.80;99.90
39493;DHT22;25176;51.060;3.720;2023-02-01T06:19:20;6.80;99.90
39493;DHT22;25176;51.060;3.720;2023-02-01T06:21:46;6.70;99.90
39493;DHT22;25176;51.060;3.720;2023-02-01T06:24:12;6.70;99.90
39493;DHT22;25176;51.060;3.720;2023-02-01T06:26:37;6.70;99.90
39493;DHT22;25176;51.060;3.720;2023-02-01T06:29:05;6.80;99.90
39493;DHT22;25176;51.060;3.720;2023-02-01T06:31:32;6.70;99.90
39493;DHT22;25176;51.060;3.720;2023-02-01T06:33:57;6.90;99.90
39493;DHT22;25176;51.060;3.720;2023-02-01T06:36:23;6.80;99.90
39493;DHT22;25176;51.060;3.720;2023-02-01T06:38:48;6.80;99.90
39493;DHT22;25176;51.060;3.720;2023-02-01T06:41:14;6.80;99.90
39493;DHT22;25176;51.060;3.720;2023-02-01T06:43:40;6.70;99.90
39493;DHT22;25176;51.060;3.720;2023-02-01T06:46:06;6.70;99.90
39493;DHT22;25176;51.060;3.720;2023-02-01T06:48:32;6.70;99.90
39493;DHT22;25176;51.060;3.720;2023-02-01T06:50:58;6.80;99.90
39493;DHT22;25176;51.060;3.720;2023-02-01T06:53:24;6.70;99.90
39493;DHT22;25176;51.060;3.720;2023-02-01T06:56:00;6.70;99.90
39493;DHT22;25176;51.060;3.720;2023-02-01T06:58:29;6.70;99.90
39493;DHT22;25176;51.060;3.720;2023-02-01T07:00:58;6.70;99.90
39493;DHT22;25176;51.060;3.720;2023-02-01T07:03:29;6.70;99.90
39493;DHT22;25176;51.060;3.720;2023-02-01T07:05:55;6.70;99.90
39493;DHT22;25176;51.060;3.720;2023-02-01T07:08:21;6.70;99.90
39493;DHT22;25176;51.060;3.720;2023-02-01T07:10:47;6.70;99.90
39493;DHT22;25176;51.060;3.720;2023-02-01T07:13:12;6.70;99.90
39493;DHT22;25176;51.060;3.720;2023-02-01T07:15:38;6.70;99.90
39493;DHT22;25176;51.060;3.720;2023-02-01T07:18:03;6.70;99.90
39493;DHT22;25176;51.060;3.720;2023-02-01T07:20:29;6.70;99.90
39493;DHT22;25176;51.060;3.720;2023-02-01T07:22:56;6.70;99.90
39493;DHT22;25176;51.060;3.720;2023-02-01T07:25:22;6.80;99.90
39493;DHT22;25176;51.060;3.720;2023-02-01T07:27:53;6.80;99.90
39493;DHT22;25176;51.060;3.720;2023-02-01T07:30:38;6.80;99.90
39493;DHT22;25176;51.060;3.720;2023-02-01T07:33:08;6.80;99.90
39493;DHT22;25176;51.060;3.720;2023-02-01T07:38:37;6.80;99.90
39493;DHT22;25176;51.060;3.720;2023-02-01T07:41:04;6.90;99.90
39493;DHT22;25176;51.060;3.720;2023-02-01T07:43:30;6.90;99.90
39493;DHT22;25176;51.060;3.720;2023-02-01T07:45:56;7.10;99.90
39493;DHT22;25176;51.060;3.720;2023-02-01T07:48:22;7.10;99.90
39493;DHT22;25176;51.060;3.720;2023-02-01T07:50:48;7.10;99.90
39493;DHT22;25176;51.060;3.720;2023-02-01T07:53:14;7.20;99.90
39493;DHT22;25176;51.060;3.720;2023-02-01T07:55:40;7.20;99.90
39493;DHT22;25176;51.060;3.720;2023-02-01T07:58:08;7.30;99.90
39493;DHT22;25176;51.060;3.720;2023-02-01T08:03:38;7.30;99.90
39493;DHT22;25176;51.060;3.720;2023-02-01T08:06:03;7.40;99.90
39493;DHT22;25176;51.060;3.720;2023-02-01T08:08:29;7.40;99.90
39493;DHT22;25176;51.060;3.720;2023-02-01T08:10:58;7.50;99.90
39493;DHT22;25176;51.060;3.720;2023-02-01T08:13:24;7.40;99.90
39493;DHT22;25176;51.060;3.720;2023-02-01T08:15:50;7.40;99.90
39493;DHT22;25176;51.060;3.720;2023-02-01T08:18:15;7.50;99.90
39493;DHT22;25176;51.060;3.720;2023-02-01T08:20:43;7.50;99.90
39493;DHT22;25176;51.060;3.720;2023-02-01T08:23:11;7.60;99.90
39493;DHT22;25176;51.060;3.720;2023-02-01T08:25:37;7.70;99.90
39493;DHT22;25176;51.060;3.720;2023-02-01T08:28:06;7.70;99.90
39493;DHT22;25176;51.060;3.720;2023-02-01T08:30:31;7.60;99.90
39493;DHT22;25176;51.060;3.720;2023-02-01T08:32:57;7.90;99.90
39493;DHT22;25176;51.060;3.720;2023-02-01T08:35:23;7.90;99.90
39493;DHT22;25176;51.060;3.720;2023-02-01T08:37:49;7.90;99.90
39493;DHT22;25176;51.060;3.720;2023-02-01T08:40:15;7.90;99.90
39493;DHT22;25176;51.060;3.720;2023-02-01T08:42:40;7.90;99.90
39493;DHT22;25176;51.060;3.720;2023-02-01T08:45:20;8.00;99.90
39493;DHT22;25176;51.060;3.720;2023-02-01T08:47:46;8.20;99.90
39493;DHT22;25176;51.060;3.720;2023-02-01T08:50:12;8.10;99.90
39493;DHT22;25176;51.060;3.720;2023-02-01T08:52:38;8.30;99.90
39493;DHT22;25176;51.060;3.720;2023-02-01T08:55:04;8.50;99.90
39493;DHT22;25176;51.060;3.720;2023-02-01T08:57:29;8.70;99.90
39493;DHT22;25176;51.060;3.720;2023-02-01T08:59:59;8.90;99.90
39493;DHT22;25176;51.060;3.720;2023-02-01T09:02:25;8.90;99.90
39493;DHT22;25176;51.060;3.720;2023-02-01T09:04:51;9.10;99.90
39493;DHT22;25176;51.060;3.720;2023-02-01T09:07:17;9.40;99.90
39493;DHT22;25176;51.060;3.720;2023-02-01T09:09:43;9.60;99.90
39493;DHT22;25176;51.060;3.720;2023-02-01T09:12:14;10.20;99.90
39493;DHT22;25176;51.060;3.720;2023-02-01T09:14:40;11.20;99.90
39493;DHT22;25176;51.060;3.720;2023-02-01T09:17:06;11.90;99.80
39493;DHT22;25176;51.060;3.720;2023-02-01T09:22:17;13.00;98.10
39493;DHT22;25176;51.060;3.720;2023-02-01T09:24:43;14.90;96.00
39493;DHT22;25176;51.060;3.720;2023-02-01T09:27:09;15.10;94.90
39493;DHT22;25176;51.060;3.720;2023-02-01T09:29:35;15.70;93.30
39493;DHT22;25176;51.060;3.720;2023-02-01T09:32:01;16.20;93.10
39493;DHT22;25176;51.060;3.720;2023-02-01T09:34:26;16.80;91.60
39493;DHT22;25176;51.060;3.720;2023-02-01T09:36:52;18.10;89.60
39493;DHT22;25176;51.060;3.720;2023-02-01T09:39:20;18.50;84.20
39493;DHT22;25176;51.060;3.720;2023-02-01T09:47:18;19.50;79.20
39493;DHT22;25176;51.060;3.720;2023-02-01T09:50:10;19.20;77.40
39493;DHT22;25176;51.060;3.720;2023-02-01T09:52:38;19.60;77.10
39493;DHT22;25176;51.060;3.720;2023-02-01T09:55:12;20.00;75.40
39493;DHT22;25176;51.060;3.720;2023-02-01T09:57:49;20.10;74.00
39493;DHT22;25176;51.060;3.720;2023-02-01T10:20:23;15.10;84.70
39493;DHT22;25176;51.060;3.720;2023-02-01T10:22:41;15.10;85.50
39493;DHT22;25176;51.060;3.720;2023-02-01T10:25:30;14.80;85.00
39493;DHT22;25176;51.060;3.720;2023-02-01T10:27:54;14.50;86.30
39493;DHT22;25176;51.060;3.720;2023-02-01T10:30:21;14.10;87.30
39493;DHT22;25176;51.060;3.720;2023-02-01T10:32:48;13.60;88.10
39493;DHT22;25176;51.060;3.720;2023-02-01T10:35:16;13.00;90.20
39493;DHT22;25176;51.060;3.720;2023-02-01T10:37:43;12.60;90.70
39493;DHT22;25176;51.060;3.720;2023-02-01T10:40:21;12.70;90.80
39493;DHT22;25176;51.060;3.720;2023-02-01T10:42:48;12.40;91.10
39493;DHT22;25176;51.060;3.720;2023-02-01T10:45:15;12.20;91.20
39493;DHT22;25176;51.060;3.720;2023-02-01T10:47:42;11.80;91.50
39493;DHT22;25176;51.060;3.720;2023-02-01T10:50:13;11.50;91.90
39493;DHT22;25176;51.060;3.720;2023-02-01T10:58:16;11.10;92.90
39493;DHT22;25176;51.060;3.720;2023-02-01T11:04:02;11.30;92.10
39493;DHT22;25176;51.060;3.720;2023-02-01T11:08:55;11.60;91.90
39493;DHT22;25176;51.060;3.720;2023-02-01T11:11:21;11.60;91.60
39493;DHT22;25176;51.060;3.720;2023-02-01T11:13:54;11.50;91.60
39493;DHT22;25176;51.060;3.720;2023-02-01T11:16:20;11.40;92.00
39493;DHT22;25176;51.060;3.720;2023-02-01T11:18:46;11.40;91.80
39493;DHT22;25176;51.060;3.720;2023-02-01T11:21:17;11.60;91.60
39493;DHT22;25176;51.060;3.720;2023-02-01T11:23:43;11.70;91.90
39493;DHT22;25176;51.060;3.720;2023-02-01T11:26:11;11.90;91.20
39493;DHT22;25176;51.060;3.720;2023-02-01T11:28:38;11.90;91.20
39493;DHT22;25176;51.060;3.720;2023-02-01T11:31:07;11.80;91.30
39493;DHT22;25176;51.060;3.720;2023-02-01T11:33:34;11.80;91.40
39493;DHT22;25176;51.060;3.720;2023-02-01T11:36:11;11.90;91.30
39493;DHT22;25176;51.060;3.720;2023-02-01T11:38:39;11.60;91.40
39493;DHT22;25176;51.060;3.720;2023-02-01T11:41:12;11.50;91.50
39493;DHT22;25176;51.060;3.720;2023-02-01T11:43:49;11.60;91.60
39493;DHT22;25176;51.060;3.720;2023-02-01T11:46:17;11.80;91.60
39493;DHT22;25176;51.060;3.720;2023-02-01T11:48:47;11.80;91.70
39493;DHT22;25176;51.060;3.720;2023-02-01T11:51:28;11.70;91.80
39493;DHT22;25176;51.060;3.720;2023-02-01T11:57:04;11.60;91.60
39493;DHT22;25176;51.060;3.720;2023-02-01T12:07:39;11.10;92.30
39493;DHT22;25176;51.060;3.720;2023-02-01T12:09:47;11.00;92.40
39493;DHT22;25176;51.060;3.720;2023-02-01T12:14:48;11.00;92.70
39493;DHT22;25176;51.060;3.720;2023-02-01T12:25:08;11.40;91.60
39493;DHT22;25176;51.060;3.720;2023-02-01T12:33:00;11.50;91.40
39493;DHT22;25176;51.060;3.720;2023-02-01T12:40:30;11.70;90.90
39493;DHT22;25176;51.060;3.720;2023-02-01T12:42:59;11.50;91.00
39493;DHT22;25176;51.060;3.720;2023-02-01T12:45:34;11.30;91.50
39493;DHT22;25176;51.060;3.720;2023-02-01T12:50:53;11.20;91.80
39493;DHT22;25176;51.060;3.720;2023-02-01T12:53:19;11.20;92.10
39493;DHT22;25176;51.060;3.720;2023-02-01T12:55:53;11.20;92.00
39493;DHT22;25176;51.060;3.720;2023-02-01T13:01:07;11.40;92.00
39493;DHT22;25176;51.060;3.720;2023-02-01T13:03:38;11.40;92.00
39493;DHT22;25176;51.060;3.720;2023-02-01T13:11:03;11.20;92.10
39493;DHT22;25176;51.060;3.720;2023-02-01T13:13:39;11.30;91.90
39493;DHT22;25176;51.060;3.720;2023-02-01T13:18:38;11.50;91.30
39493;DHT22;25176;51.060;3.720;2023-02-01T13:23:31;11.60;91.60
39493;DHT22;25176;51.060;3.720;2023-02-01T13:25:57;11.50;91.40
39493;DHT22;25176;51.060;3.720;2023-02-01T13:43:38;11.70;91.10
39493;DHT22;25176;51.060;3.720;2023-02-01T13:46:05;11.60;91.30
39493;DHT22;25176;51.060;3.720;2023-02-01T13:48:45;11.50;91.40
39493;DHT22;25176;51.060;3.720;2023-02-01T13:51:11;11.80;91.30
39493;DHT22;25176;51.060;3.720;2023-02-01T13:53:37;11.70;91.10
39493;DHT22;25176;51.060;3.720;2023-02-01T13:56:18;11.60;91.50
39493;DHT22;25176;51.060;3.720;2023-02-01T13:58:46;11.60;91.60
39493;DHT22;25176;51.060;3.720;2023-02-01T14:03:48;11.70;91.40
39493;DHT22;25176;51.060;3.720;2023-02-01T14:06:36;11.70;91.70
39493;DHT22;25176;51.060;3.720;2023-02-01T14:16:44;11.70;92.00
39493;DHT22;25176;51.060;3.720;2023-02-01T14:19:23;11.50;92.20
39493;DHT22;25176;51.060;3.720;2023-02-01T14:21:52;11.60;92.30
39493;DHT22;25176;51.060;3.720;2023-02-01T14:24:35;11.50;92.40
39493;DHT22;25176;51.060;3.720;2023-02-01T14:27:02;11.60;92.50
39493;DHT22;25176;51.060;3.720;2023-02-01T14:29:39;11.70;92.40
39493;DHT22;25176;51.060;3.720;2023-02-01T14:32:16;11.70;92.30
39493;DHT22;25176;51.060;3.720;2023-02-01T14:44:43;11.20;93.30
39493;DHT22;25176;51.060;3.720;2023-02-01T14:52:23;11.10;93.40
39493;DHT22;25176;51.060;3.720;2023-02-01T14:54:54;11.20;93.60
39493;DHT22;25176;51.060;3.720;2023-02-01T14:57:20;11.10;93.60
39493;DHT22;25176;51.060;3.720;2023-02-01T14:59:48;10.90;93.90
39493;DHT22;25176;51.060;3.720;2023-02-01T15:02:18;11.00;94.10
39493;DHT22;25176;51.060;3.720;2023-02-01T15:04:45;10.90;94.10
39493;DHT22;25176;51.060;3.720;2023-02-01T15:07:12;11.00;94.10
39493;DHT22;25176;51.060;3.720;2023-02-01T15:09:38;11.00;94.10
39493;DHT22;25176;51.060;3.720;2023-02-01T15:14:37;11.00;94.20
39493;DHT22;25176;51.060;3.720;2023-02-01T15:17:03;10.90;94.20
39493;DHT22;25176;51.060;3.720;2023-02-01T15:19:41;11.00;94.20
39493;DHT22;25176;51.060;3.720;2023-02-01T15:22:18;11.00;94.30
39493;DHT22;25176;51.060;3.720;2023-02-01T15:24:43;11.00;94.30
39493;DHT22;25176;51.060;3.720;2023-02-01T15:27:09;10.80;94.70
39493;DHT22;25176;51.060;3.720;2023-02-01T15:29:35;10.90;94.80
39493;DHT22;25176;51.060;3.720;2023-02-01T15:32:01;10.80;94.80
39493;DHT22;25176;51.060;3.720;2023-02-01T15:34:46;10.80;94.90
39493;DHT22;25176;51.060;3.720;2023-02-01T15:37:13;10.70;95.10
39493;DHT22;25176;51.060;3.720;2023-02-01T15:40:02;10.80;95.30
39493;DHT22;25176;51.060;3.720;2023-02-01T15:42:26;10.80;95.20
39493;DHT22;25176;51.060;3.720;2023-02-01T15:44:52;10.70;95.30
39493;DHT22;25176;51.060;3.720;2023-02-01T15:47:19;10.70;95.40
39493;DHT22;25176;51.060;3.720;2023-02-01T15:49:46;10.90;95.20
39493;DHT22;25176;51.060;3.720;2023-02-01T15:54:56;10.70;95.60
39493;DHT22;25176;51.060;3.720;2023-02-01T15:57:25;10.80;95.50
39493;DHT22;25176;51.060;3.720;2023-02-01T15:59:55;10.70;95.80
39493;DHT22;25176;51.060;3.720;2023-02-01T16:02:33;10.50;96.00
39493;DHT22;25176;51.060;3.720;2023-02-01T16:04:59;10.50;96.20
39493;DHT22;25176;51.060;3.720;2023-02-01T16:07:29;10.50;96.40
39493;DHT22;25176;51.060;3.720;2023-02-01T16:09:58;10.60;96.40
39493;DHT22;25176;51.060;3.720;2023-02-01T16:12:34;10.60;96.40
39493;DHT22;25176;51.060;3.720;2023-02-01T16:15:09;10.70;96.30
39493;DHT22;25176;51.060;3.720;2023-02-01T16:17:35;10.60;96.40
39493;DHT22;25176;51.060;3.720;2023-02-01T16:20:00;10.80;96.40
39493;DHT22;25176;51.060;3.720;2023-02-01T16:22:26;10.70;96.50
39493;DHT22;25176;51.060;3.720;2023-02-01T16:24:51;10.50;96.90
39493;DHT22;25176;51.060;3.720;2023-02-01T16:27:17;10.50;97.10
39493;DHT22;25176;51.060;3.720;2023-02-01T16:29:43;10.60;97.10
39493;DHT22;25176;51.060;3.720;2023-02-01T16:32:13;10.50;97.20
39493;DHT22;25176;51.060;3.720;2023-02-01T16:34:40;10.40;97.50
39493;DHT22;25176;51.060;3.720;2023-02-01T16:37:05;10.40;97.70
39493;DHT22;25176;51.060;3.720;2023-02-01T16:39:31;10.30;97.90
39493;DHT22;25176;51.060;3.720;2023-02-01T16:41:58;10.30;98.10
39493;DHT22;25176;51.060;3.720;2023-02-01T16:44:23;10.30;98.20
39493;DHT22;25176;51.060;3.720;2023-02-01T16:46:50;10.30;98.40
39493;DHT22;25176;51.060;3.720;2023-02-01T16:49:24;10.30;98.50
39493;DHT22;25176;51.060;3.720;2023-02-01T16:51:50;10.40;98.50
39493;DHT22;25176;51.060;3.720;2023-02-01T16:54:18;10.40;98.60
39493;DHT22;25176;51.060;3.720;2023-02-01T16:56:44;10.40;98.60
39493;DHT22;25176;51.060;3.720;2023-02-01T16:59:10;10.40;98.80
39493;DHT22;25176;51.060;3.720;2023-02-01T17:01:36;10.40;98.70
39493;DHT22;25176;51.060;3.720;2023-02-01T17:04:07;10.40;98.90
39493;DHT22;25176;51.060;3.720;2023-02-01T17:06:32;10.30;99.00
39493;DHT22;25176;51.060;3.720;2023-02-01T17:08:58;10.30;99.20
39493;DHT22;25176;51.060;3.720;2023-02-01T17:11:24;10.30;99.20
39493;DHT22;25176;51.060;3.720;2023-02-01T17:13:50;10.40;99.00
39493;DHT22;25176;51.060;3.720;2023-02-01T17:18:45;10.30;99.10
39493;DHT22;25176;51.060;3.720;2023-02-01T17:21:11;10.50;99.20
39493;DHT22;25176;51.060;3.720;2023-02-01T17:23:37;10.50;99.00
39493;DHT22;25176;51.060;3.720;2023-02-01T17:26:03;10.50;99.10
39493;DHT22;25176;51.060;3.720;2023-02-01T17:28:28;10.40;99.00
39493;DHT22;25176;51.060;3.720;2023-02-01T17:30:54;10.30;99.50
39493;DHT22;25176;51.060;3.720;2023-02-01T17:33:21;10.30;99.60
39493;DHT22;25176;51.060;3.720;2023-02-01T17:35:48;10.30;99.70
39493;DHT22;25176;51.060;3.720;2023-02-01T17:38:13;10.20;99.80
39493;DHT22;25176;51.060;3.720;2023-02-01T17:40:39;10.20;99.70
39493;DHT22;25176;51.060;3.720;2023-02-01T17:43:05;10.20;99.90
39493;DHT22;25176;51.060;3.720;2023-02-01T17:45:34;10.20;99.90
39493;DHT22;25176;51.060;3.720;2023-02-01T17:48:03;10.20;99.90
39493;DHT22;25176;51.060;3.720;2023-02-01T17:50:30;10.20;99.90
39493;DHT22;25176;51.060;3.720;2023-02-01T17:52:56;10.40;99.90
39493;DHT22;25176;51.060;3.720;2023-02-01T17:55:23;10.20;99.90
39493;DHT22;25176;51.060;3.720;2023-02-01T17:57:49;10.20;99.90
39493;DHT22;25176;51.060;3.720;2023-02-01T18:00:15;10.30;99.90
39493;DHT22;25176;51.060;3.720;2023-02-01T18:02:41;10.20;99.90
39493;DHT22;25176;51.060;3.720;2023-02-01T18:05:26;10.30;99.90
39493;DHT22;25176;51.060;3.720;2023-02-01T18:07:53;10.20;99.90
39493;DHT22;25176;51.060;3.720;2023-02-01T18:10:18;10.20;99.90
39493;DHT22;25176;51.060;3.720;2023-02-01T18:12:44;10.20;99.90
39493;DHT22;25176;51.060;3.720;2023-02-01T18:17:41;10.10;99.90
39493;DHT22;25176;51.060;3.720;2023-02-01T18:20:06;10.20;99.90
39493;DHT22;25176;51.060;3.720;2023-02-01T18:22:32;10.20;99.90
39493;DHT22;25176;51.060;3.720;2023-02-01T18:24:57;10.20;99.90
39493;DHT22;25176;51.060;3.720;2023-02-01T18:27:23;10.20;99.90
39493;DHT22;25176;51.060;3.720;2023-02-01T18:29:48;10.10;99.90
39493;DHT22;25176;51.060;3.720;2023-02-01T18:32:14;10.20;99.90
39493;DHT22;25176;51.060;3.720;2023-02-01T18:34:39;10.20;99.90